Aeroporto :
LOGIN :

Iscrizione | Disclaimer

   EN    FR    IT 

 










Sommario :    VFR   VFR Marginale   IFR   IFR Intensivo   IFR Molto Intensivo
Visibilità : 
Base nubi : 
>= 8 km
>= 3000ft
5 / 8 km
1000 / 3000 ft
1500m / 5 km
500 / 1000 ft
800 / 1500m
200 / 500 ft
< 800m
< 200 ft
Simboli :   Temporali  Nebbia  Neve Forte  Precipitazioni Forti  Vento > 20 kt
SIGMETs :   Varie  Temporali  Ghiacco  Turbolenza  Onda orograficha  Ceneri Vulcaniche






- Altitudine del aeroporto : 157 ft
- Codice IATA : SXF


EDDB - Berlin Schönefeld

ULTIMO METAR :
  • 241120Z 25013KT 9999 BKN017 BKN033 06/03 Q1017 NOSIG

METARs OBSOLETI :
  • 241050Z 26012KT 9999 BKN016 06/03 Q1018 NOSIG
  • 241020Z 25012KT 9999 -RA BKN016 05/04 Q1018 NOSIG
  • 240950Z 26010KT 9999 -DZ BKN014 05/03 Q1019 BECMG BKN015
  • 240920Z 25012KT 9999 -DZ BKN016 05/03 Q1019 NOSIG
  • 240850Z 26015KT 9999 -RA BKN017 05/02 Q1019 NOSIG

TAF TAF EDDB
Valido dal 24 a 12 ore il 25 a 12 ore UTC


241100Z 2412/2512 24010KT 9999 BKN020
BECMG 2414/2417 17010KT
TEMPO 2417/2502 4500 RADZ BKN008
BECMG 2420/2423 22015G25KT



MetMap, La meteo Aeronautica in un colpo d'occhio ! - Copyright ORBIFLY Dicembre 2007 - Disclaimer

ORBIFLY MET'MAP TEAM :

Programmazione e sviluppo : Alexandra Zaïnal
Concezione : Baudouin d'Aumeries
Aiuto per la programmazione : Marc-Olivier Méhu
Supporto tecnico e logistico : Manuel Goepfert
Aiuto per la traduzione : Arnaldo La Scala

Contatto : metmap@orbifly.com




FONTI E CREDITI :

   NOAA